Strona główna
METAR-TAF:

METAR-TAF

Lotnisko :

Nörvenich, Niemcy

Szerokość geograficzna: 50-50N, Długość geograficzna: 006-40E, wysokość: 118 m

Aktualna obserwacja pogody

Raport powstał 1 godzina i 11 minut temu, godzina 04:20 UTC
Wiatr 8 kt od południowy wschód
Temperatura 9°C
Wilgotność 53%
Ciśnienie 1018 hPa
Widzialność 10 km lub więcej

METAR: ETNN 060420Z 14008KT 9999 09/M00 Q1018 BLU+

czas: 07:31 (05:31 UTC)


TAF: brakujący

Obserwacja i prognoza pogody dla ponad 4000 lotnisk (raport METAR i TAF).

Dostępne stacje oznaczono żółtymi i czerwonymi punktami na mapie.

Najedź kursorem aby zobaczyć nazwę stacji.

Kliknij aby zobaczyć obserwacje i prognozy pogody.

Aby zmienić mapę: kliknij na zielony przycisk z czarnym krzyżykiem, aby powiększyć; na zielony przycisk z myślnikiem, aby pomniejszyć; na zielone strzałki, aby przejść do map sąsiednich.


METAR-TAF: